Terminal Aerodrome Forecast
Issued by NWS Grand Forks, ND

Home | Current Version | Previous Version | Text Only | Print | Product List | Glossary On
Versions: 1 2 3 4 5 6 7 8 9 10 11 12 13 14 15 16
000
FTUS43 KFGF 280500
TAFFAR
TAF
KFAR 280520Z 2806/2906 35013KT P6SM -DZ BKN040
      TEMPO 2806/2808 -SHRA BKN025
     FM281200 34007KT P6SM SKC
     FM281800 35011KT P6SM FEW050
     FM290200 VRB05KT P6SM SKC=

USA.gov is the U.S. government's official web portal to all federal, state and local government web resources and services.